Time;durP1;ratioP1;P1;durP2;ratioP2;P2;SDS_P1;SDS_P2;PMS_P1;PMS_P2;Temp;Humidity;BMP_temperature;BMP_pressure;BME280_temperature;BME280_humidity;BME280_pressure;Samples;Min_cycle;Max_cycle;Signal;HPM_P1;HPM_P2
2022/05/03 17:45:17;;;;;;;;;;;17.00;51.30;;;;;;5124516;27;20286;-90
2022/05/03 17:47:42;;;;;;;;;;;16.80;52.40;;;;;;5117692;27;19912;-89
2022/05/03 17:50:08;;;;;;;;;;;16.80;53.30;;;;;;5112601;28;20448;-89
2022/05/03 17:55:18;;;;;;;;;;;16.90;54.10;;;;;;5113256;28;19915;-90
2022/05/03 17:57:43;;;;;;;;;;;17.00;54.20;;;;;;5112394;28;20309;-91
2022/05/03 18:00:09;;;;;;;;;;;17.00;54.20;;;;;;5113268;28;20523;-90
2022/05/03 18:02:35;;;;;;;;;;;17.00;54.30;;;;;;5112853;28;19956;-89
2022/05/03 18:05:00;;;;;;;;;;;17.10;54.30;;;;;;5113517;28;20029;-91
2022/05/03 18:07:26;;;;;;;;;;;17.10;54.30;;;;;;5113559;28;19908;-90
2022/05/03 18:09:52;;;;;;;;;;;17.10;54.30;;;;;;5111957;28;19977;-88
2022/05/03 18:12:20;;;;;;;;;;;17.20;54.30;;;;;;5126619;28;19915;-91
2022/05/03 18:14:46;;;;;;;;;;;17.20;54.30;;;;;;5131628;28;19943;-90
2022/05/03 18:17:11;;;;;;;;;;;17.20;54.40;;;;;;5107594;28;20287;-88
2022/05/03 18:19:38;;;;;;;;;;;17.20;54.30;;;;;;5092447;28;19908;-88
2022/05/03 18:22:04;;;;;;;;;;;17.20;54.40;;;;;;5091866;28;19935;-89
2022/05/03 18:24:30;;;;;;;;;;;17.20;54.50;;;;;;5091636;28;19908;-89
2022/05/03 18:26:55;;;;;;;;;;;17.20;54.60;;;;;;5091649;28;20376;-90
2022/05/03 18:29:21;;;;;;;;;;;17.20;54.60;;;;;;5092429;28;20353;-90
2022/05/03 18:31:46;;;;;;;;;;;17.10;54.60;;;;;;5091551;28;19909;-91
2022/05/03 18:34:13;;;;;;;;;;;17.00;54.70;;;;;;5100201;28;20121;-89
2022/05/03 18:36:39;;;;;;;;;;;17.00;54.80;;;;;;5109200;28;19919;-90
2022/05/03 18:39:04;;;;;;;;;;;16.90;54.80;;;;;;5113860;28;19909;-90
2022/05/03 18:41:32;;;;;;;;;;;16.80;54.90;;;;;;5113689;28;19912;-89
2022/05/03 18:44:00;;;;;;;;;;;16.70;55.00;;;;;;5108809;28;19924;-90
2022/05/03 18:46:25;;;;;;;;;;;16.70;55.00;;;;;;5091610;28;19974;-89
2022/05/03 18:48:51;;;;;;;;;;;16.60;55.00;;;;;;5090941;28;19909;-89
2022/05/03 18:51:16;;;;;;;;;;;16.60;55.00;;;;;;5090937;28;19916;-90
2022/05/03 18:53:42;;;;;;;;;;;16.50;55.10;;;;;;5090763;28;19919;-89
2022/05/03 18:56:07;;;;;;;;;;;16.40;55.20;;;;;;5078320;28;19908;-89
2022/05/03 18:58:33;;;;;;;;;;;16.40;55.20;;;;;;5078678;28;19913;-90
2022/05/03 19:01:03;;;;;;;;;;;16.40;55.40;;;;;;5097736;28;19912;-87
2022/05/03 19:03:29;;;;;;;;;;;16.40;55.40;;;;;;5099345;28;20282;-90
2022/05/03 19:05:56;;;;;;;;;;;16.30;55.50;;;;;;5119386;28;19914;-90
2022/05/03 19:08:22;;;;;;;;;;;16.30;55.60;;;;;;5119477;28;20272;-88
2022/05/03 19:10:47;;;;;;;;;;;16.30;56.20;;;;;;5116961;28;19908;-90
2022/05/03 19:13:13;;;;;;;;;;;16.30;55.60;;;;;;5098468;28;19913;-89
2022/05/03 19:15:39;;;;;;;;;;;16.30;55.60;;;;;;5099742;28;19961;-90
2022/05/03 19:19:14;;;;;;;;;;;16.30;55.20;;;;;;5093943;28;19919;-90
2022/05/03 19:21:40;;;;;;;;;;;16.20;55.90;;;;;;5093897;28;19912;-89
2022/05/03 19:32:25;;;;;;;;;;;16.10;56.50;;;;;;5090910;28;19954;-89
2022/05/03 19:34:51;;;;;;;;;;;16.00;56.70;;;;;;5095384;28;19916;-90
2022/05/03 19:37:17;;;;;;;;;;;15.90;56.70;;;;;;5094481;28;19916;-90
2022/05/03 19:39:42;;;;;;;;;;;15.80;56.70;;;;;;5075557;28;19908;-90
2022/05/03 19:42:08;;;;;;;;;;;15.70;56.90;;;;;;5093958;28;19916;-91
2022/05/03 19:44:34;;;;;;;;;;;15.60;57.00;;;;;;5094010;28;19908;-89
2022/05/03 19:46:59;;;;;;;;;;;15.60;57.20;;;;;;5093625;28;20258;-89
2022/05/03 19:49:25;;;;;;;;;;;15.50;57.20;;;;;;5093149;28;19908;-90
2022/05/03 19:51:51;;;;;;;;;;;15.40;57.50;;;;;;5092767;28;19908;-89
2022/05/03 19:54:16;;;;;;;;;;;15.30;57.70;;;;;;5087685;28;19923;-90
2022/05/03 19:56:44;;;;;;;;;;;15.20;57.90;;;;;;5092191;28;20369;-89
2022/05/03 19:59:13;;;;;;;;;;;15.20;58.90;;;;;;5091737;28;19924;-90
2022/05/03 20:01:41;;;;;;;;;;;15.20;58.30;;;;;;5084806;28;19909;-90
2022/05/03 20:04:06;;;;;;;;;;;15.10;58.20;;;;;;5091836;28;19909;-90
2022/05/03 20:32:13;;;;;;;;;;;13.70;56.40;;;;;;5113796;27;19912;-89
2022/05/03 20:34:39;;;;;;;;;;;13.60;57.90;;;;;;5145346;27;20344;-87
